Time;durP1;ratioP1;P1;durP2;ratioP2;P2;SDS_P1;SDS_P2;PMS_P1;PMS_P2;Temp;Humidity;BMP_temperature;BMP_pressure;BME280_temperature;BME280_humidity;BME280_pressure;Samples;Min_cycle;Max_cycle;Signal;HPM_P1;HPM_P2
2022/06/02 00:00:10;;;;;;;1.65;1.27;;;17.80;57.30;;;;;;5108895;28;20058;-72
2022/06/02 00:02:42;;;;;;;1.27;1.10;;;17.40;61.60;;;;;;5093033;28;20055;-72
2022/06/02 00:05:16;;;;;;;1.15;1.05;;;17.80;62.90;;;;;;5110499;28;20047;-72
2022/06/02 00:07:50;;;;;;;1.60;1.20;;;18.30;62.70;;;;;;5110279;28;20127;-72
2022/06/02 00:10:22;;;;;;;1.80;1.30;;;17.70;61.60;;;;;;5110528;28;20055;-72
2022/06/02 00:12:52;;;;;;;1.10;1.00;;;17.90;62.00;;;;;;5110217;28;20063;-72
2022/06/02 00:15:23;;;;;;;1.13;1.00;;;17.70;62.20;;;;;;5108663;28;20047;-72
2022/06/02 00:17:53;;;;;;;1.48;1.30;;;17.70;57.30;;;;;;5089928;28;20083;-72
2022/06/02 00:20:24;;;;;;;2.03;1.20;;;18.40;62.00;;;;;;5088900;28;20060;-72
2022/06/02 00:23:08;;;;;;;1.77;1.35;;;17.50;61.50;;;;;;5089726;28;20647;-72
2022/06/02 00:25:36;;;;;;;1.70;1.10;;;17.20;61.50;;;;;;5089780;28;20128;-72
2022/06/02 00:28:07;;;;;;;1.45;1.33;;;17.80;62.40;;;;;;5090189;28;20056;-72
2022/06/02 00:30:36;;;;;;;1.15;1.05;;;17.70;63.20;;;;;;5089884;28;20080;-72
2022/06/02 00:33:12;;;;;;;1.35;1.20;;;17.70;57.30;;;;;;5089739;28;20074;-72
2022/06/02 00:35:43;;;;;;;1.25;1.08;;;17.70;57.30;;;;;;5095057;27;20537;-72
2022/06/02 00:38:18;;;;;;;1.23;1.00;;;17.60;61.80;;;;;;5130707;27;20051;-72
2022/06/02 00:40:45;;;;;;;1.40;1.20;;;17.60;61.70;;;;;;5130632;27;20059;-72
2022/06/02 00:43:23;;;;;;;1.30;1.00;;;17.50;62.80;;;;;;5130347;27;20051;-72
2022/06/02 00:45:52;;;;;;;1.42;1.10;;;17.70;57.30;;;;;;5130481;27;20078;-72
2022/06/02 00:48:22;;;;;;;1.20;1.10;;;17.50;61.50;;;;;;5119847;27;20052;-72
2022/06/02 00:50:53;;;;;;;1.13;1.02;;;17.60;61.90;;;;;;5089434;28;20056;-72
2022/06/02 00:53:34;;;;;;;1.67;1.10;;;17.60;57.30;;;;;;5089084;28;20421;-72
2022/06/02 00:58:58;;;;;;;1.80;1.20;;;16.90;62.00;;;;;;5089594;28;20056;-72
2022/06/02 01:01:26;;;;;;;1.25;1.10;;;18.50;62.30;;;;;;5105838;28;20572;-72
2022/06/02 01:03:54;;;;;;;2.30;1.20;;;17.60;57.30;;;;;;5109142;28;20048;-72
2022/06/02 01:06:44;;;;;;;1.45;1.10;;;17.40;62.40;;;;;;5109475;28;20409;-72
2022/06/02 01:09:25;;;;;;;1.20;1.00;;;17.60;61.50;;;;;;5109540;28;20468;-72
2022/06/02 01:11:58;;;;;;;1.10;1.00;;;17.50;62.00;;;;;;5109641;28;20050;-73
2022/06/02 01:14:32;;;;;;;1.42;1.10;;;17.40;62.40;;;;;;5100608;28;20050;-73
2022/06/02 01:17:04;;;;;;;1.20;1.10;;;17.50;57.20;;;;;;5089243;28;20060;-73
2022/06/02 01:19:56;;;;;;;1.77;1.10;;;18.50;62.80;;;;;;5088903;28;20495;-72
2022/06/02 01:22:50;;;;;;;0.90;0.90;;;17.30;62.80;;;;;;5086595;28;20048;-72
2022/06/02 01:25:52;;;;;;;1.10;1.00;;;17.70;61.90;;;;;;5088979;28;20051;-72
2022/06/02 01:28:40;;;;;;;1.52;1.10;;;17.50;57.20;;;;;;5081813;28;20094;-72
2022/06/02 01:31:13;;;;;;;1.02;0.93;;;17.60;63.20;;;;;;5075648;28;20063;-72
2022/06/02 01:33:44;;;;;;;1.08;1.00;;;17.50;62.20;;;;;;5088453;28;20417;-72
2022/06/02 01:36:16;;;;;;;1.10;1.00;;;16.50;61.50;;;;;;5095803;28;20075;-72
2022/06/02 01:38:48;;;;;;;1.02;1.00;;;17.30;61.60;;;;;;5108485;28;20074;-72
2022/06/02 01:41:18;;;;;;;1.73;1.00;;;17.60;62.50;;;;;;5108966;28;20055;-72
2022/06/02 01:43:49;;;;;;;1.40;1.10;;;17.50;57.30;;;;;;5108635;28;20654;-72
2022/06/02 01:46:23;;;;;;;1.20;1.10;;;18.20;62.10;;;;;;5108213;28;20055;-72
2022/06/02 01:48:55;;;;;;;1.20;1.10;;;16.50;61.70;;;;;;5108735;28;20052;-72
2022/06/02 01:51:26;;;;;;;1.33;1.00;;;17.50;57.30;;;;;;5108882;28;20047;-72
2022/06/02 01:53:57;;;;;;;0.93;0.90;;;17.50;57.30;;;;;;5108419;28;20052;-72
2022/06/02 01:56:33;;;;;;;1.30;1.10;;;17.70;62.70;;;;;;5089151;28;20052;-72
2022/06/02 01:59:12;;;;;;;1.10;1.00;;;17.50;57.20;;;;;;5088487;28;20056;-72
2022/06/02 02:01:45;;;;;;;1.30;1.02;;;17.40;62.10;;;;;;5087281;28;20058;-73
2022/06/02 02:04:24;;;;;;;1.73;1.15;;;17.50;57.20;;;;;;5087911;28;20051;-72
2022/06/02 02:06:53;;;;;;;1.85;1.40;;;16.30;61.70;;;;;;5088231;28;20580;-72
2022/06/02 02:09:22;;;;;;;2.22;1.30;;;17.40;61.80;;;;;;5088024;28;20060;-72
2022/06/02 02:11:50;;;;;;;1.17;1.08;;;16.60;61.00;;;;;;5095675;28;20061;-72
2022/06/02 02:14:29;;;;;;;1.30;1.10;;;17.40;57.20;;;;;;5108095;28;20131;-72
2022/06/02 02:17:01;;;;;;;1.13;0.93;;;17.50;61.60;;;;;;5108570;28;20053;-72
2022/06/02 02:19:31;;;;;;;1.10;1.00;;;16.90;61.30;;;;;;5108527;28;20055;-72
2022/06/02 02:22:01;;;;;;;1.20;1.10;;;16.20;62.10;;;;;;5108172;28;20136;-71
2022/06/02 02:24:41;;;;;;;1.58;1.15;;;17.50;61.10;;;;;;5108984;28;20046;-71
2022/06/02 02:27:11;;;;;;;1.50;1.40;;;17.60;62.40;;;;;;5108234;28;20074;-71
2022/06/02 02:29:41;;;;;;;1.58;1.30;;;17.90;61.70;;;;;;5092476;28;20063;-71
2022/06/02 02:32:17;;;;;;;1.77;1.10;;;16.60;61.40;;;;;;5088024;28;20440;-71
2022/06/02 02:34:49;;;;;;;1.30;1.20;;;17.30;61.20;;;;;;5093907;28;20039;-71
2022/06/02 02:37:21;;;;;;;1.40;1.10;;;17.40;62.30;;;;;;5107753;28;20059;-71
2022/06/02 02:39:51;;;;;;;1.55;1.25;;;17.50;61.70;;;;;;5106018;28;20134;-71
2022/06/02 02:42:21;;;;;;;1.38;1.27;;;17.20;61.30;;;;;;5099380;28;20059;-71
2022/06/02 02:45:02;;;;;;;1.30;1.10;;;17.40;61.60;;;;;;5111200;28;20658;-71
2022/06/02 02:47:33;;;;;;;1.20;1.10;;;17.60;62.50;;;;;;5092027;28;20062;-71
2022/06/02 02:50:03;;;;;;;1.73;1.25;;;17.30;62.70;;;;;;5091841;28;20460;-71
2022/06/02 02:52:35;;;;;;;1.55;1.23;;;17.40;61.30;;;;;;5091879;28;20048;-71
2022/06/02 02:55:04;;;;;;;1.20;1.10;;;17.30;61.40;;;;;;5091189;28;20048;-71
2022/06/02 02:57:34;;;;;;;1.50;1.20;;;17.30;57.00;;;;;;5091491;28;20134;-71
2022/06/02 03:00:08;;;;;;;1.92;1.40;;;17.50;62.70;;;;;;5092760;28;20051;-71
2022/06/02 03:02:40;;;;;;;1.88;1.20;;;17.20;62.00;;;;;;5104758;28;20063;-71
2022/06/02 03:05:10;;;;;;;1.40;1.20;;;17.20;61.30;;;;;;5110764;28;20061;-71
2022/06/02 03:07:37;;;;;;;1.40;1.20;;;17.40;61.50;;;;;;5111947;28;20490;-71
2022/06/02 03:10:06;;;;;;;1.38;1.20;;;16.30;61.30;;;;;;5111659;28;20130;-71
2022/06/02 03:12:53;;;;;;;1.33;1.23;;;17.30;57.60;;;;;;5111271;28;20057;-71
2022/06/02 03:15:23;;;;;;;1.60;1.25;;;16.30;60.90;;;;;;5111227;28;20433;-71
2022/06/02 03:18:17;;;;;;;1.42;1.33;;;17.30;57.00;;;;;;5111240;28;20618;-71
2022/06/02 03:20:50;;;;;;;1.50;1.20;;;17.30;56.90;;;;;;5084864;28;20055;-71
2022/06/02 03:23:34;;;;;;;1.65;1.25;;;17.20;61.40;;;;;;5090716;28;20048;-71
2022/06/02 03:26:03;;;;;;;1.45;1.33;;;17.20;63.00;;;;;;5091282;28;20415;-71
2022/06/02 03:28:32;;;;;;;1.75;1.20;;;17.20;62.10;;;;;;5091149;28;20056;-71
2022/06/02 03:31:02;;;;;;;1.73;1.40;;;17.10;61.30;;;;;;5090813;28;20057;-71
2022/06/02 03:33:49;;;;;;;1.48;1.20;;;17.20;56.90;;;;;;5090638;28;20056;-72
2022/06/02 03:36:21;;;;;;;1.02;1.00;;;17.20;61.60;;;;;;5107225;27;20047;-72
2022/06/02 03:39:00;;;;;;;1.50;1.40;;;16.50;61.30;;;;;;5131941;27;20442;-72
2022/06/02 03:41:35;;;;;;;1.60;1.20;;;17.40;63.30;;;;;;5131818;27;20065;-72
2022/06/02 03:44:07;;;;;;;1.20;1.10;;;16.90;61.60;;;;;;5105804;27;20052;-71
2022/06/02 03:46:48;;;;;;;1.92;1.20;;;17.20;56.90;;;;;;5090396;28;20048;-72
2022/06/02 03:49:33;;;;;;;1.65;1.20;;;17.00;61.60;;;;;;5090442;28;20055;-72
2022/06/02 03:52:09;;;;;;;1.40;1.30;;;16.40;60.90;;;;;;5091523;28;20090;-71
2022/06/02 03:54:43;;;;;;;1.40;1.30;;;16.70;61.00;;;;;;5090258;28;20048;-71
2022/06/02 03:57:44;;;;;;;2.05;1.20;;;17.10;61.40;;;;;;5090533;28;20052;-71
2022/06/02 04:00:16;;;;;;;2.17;1.20;;;17.10;62.20;;;;;;5075243;28;20044;-71
2022/06/02 04:02:45;;;;;;;2.03;1.40;;;17.20;61.30;;;;;;5104138;28;20058;-71
2022/06/02 04:05:37;;;;;;;1.13;1.02;;;16.30;60.80;;;;;;5110453;28;20417;-71
2022/06/02 04:08:18;;;;;;;1.50;1.30;;;17.20;61.90;;;;;;5107570;28;20420;-72
2022/06/02 04:10:48;;;;;;;1.50;1.30;;;17.00;62.80;;;;;;5090257;28;20052;-71
2022/06/02 04:13:37;;;;;;;1.42;1.33;;;17.00;61.10;;;;;;5089921;28;20499;-71
2022/06/02 04:16:14;;;;;;;1.58;1.35;;;17.20;61.90;;;;;;5090401;28;20490;-71
2022/06/02 04:18:51;;;;;;;2.15;1.42;;;17.10;56.70;;;;;;5090337;28;20062;-71
2022/06/02 04:21:34;;;;;;;1.27;1.17;;;17.20;56.70;;;;;;5090155;28;20078;-71
2022/06/02 04:24:11;;;;;;;1.50;1.40;;;17.50;62.20;;;;;;5089697;28;20051;-71
2022/06/02 04:26:49;;;;;;;2.20;1.30;;;18.30;62.80;;;;;;5090603;28;20044;-71
2022/06/02 04:29:26;;;;;;;3.30;1.33;;;17.60;61.70;;;;;;5089839;28;20410;-71
2022/06/02 04:31:57;;;;;;;1.75;1.20;;;17.30;56.50;;;;;;5089687;28;20157;-71
2022/06/02 04:34:29;;;;;;;1.77;1.30;;;16.80;62.00;;;;;;5089745;28;20416;-71
2022/06/02 04:37:01;;;;;;;1.42;1.20;;;16.80;61.40;;;;;;5118174;27;20051;-71
2022/06/02 04:39:32;;;;;;;1.20;1.00;;;18.00;61.40;;;;;;5118822;27;20642;-71
2022/06/02 04:42:04;;;;;;;1.50;1.30;;;17.20;56.40;;;;;;5090791;28;20054;-73
2022/06/02 04:44:34;;;;;;;2.55;1.30;;;17.30;60.60;;;;;;5089506;28;20134;-71
2022/06/02 04:47:07;;;;;;;1.40;1.30;;;17.20;56.40;;;;;;5089441;28;20059;-72
2022/06/02 04:49:41;;;;;;;1.63;1.20;;;17.10;61.20;;;;;;5089672;28;20556;-71
2022/06/02 04:52:14;;;;;;;1.42;1.27;;;17.10;60.90;;;;;;5089652;28;20056;-72
2022/06/02 04:54:43;;;;;;;1.25;1.10;;;17.30;60.90;;;;;;5089171;28;20056;-71
2022/06/02 04:57:16;;;;;;;2.22;1.33;;;17.10;61.20;;;;;;5089476;28;20054;-71
2022/06/02 04:59:49;;;;;;;2.03;1.30;;;17.70;61.30;;;;;;5090510;28;20052;-72
2022/06/02 05:02:22;;;;;;;1.67;1.20;;;17.40;61.10;;;;;;5100227;28;20048;-72
2022/06/02 05:04:52;;;;;;;1.95;1.20;;;17.40;61.40;;;;;;5109196;28;21792;-71
2022/06/02 05:07:26;;;;;;;2.13;1.20;;;17.00;61.40;;;;;;5108779;28;20055;-71
2022/06/02 05:09:58;;;;;;;1.40;1.30;;;16.90;60.90;;;;;;5109688;28;20726;-71
2022/06/02 05:12:30;;;;;;;1.55;1.20;;;17.40;61.00;;;;;;5109242;28;20052;-71
2022/06/02 05:15:03;;;;;;;1.35;1.13;;;16.50;60.80;;;;;;5104747;28;20669;-71
2022/06/02 05:17:50;;;;;;;1.30;1.20;;;17.30;56.20;;;;;;5088864;28;20056;-71
2022/06/02 05:20:32;;;;;;;1.35;1.13;;;16.90;60.90;;;;;;5090091;28;20078;-71
2022/06/02 05:23:10;;;;;;;1.30;1.20;;;17.30;60.80;;;;;;5088245;28;20400;-72
2022/06/02 05:25:45;;;;;;;1.38;1.20;;;17.70;61.50;;;;;;5088672;28;20048;-71
2022/06/02 05:28:47;;;;;;;1.30;1.20;;;18.30;61.60;;;;;;5088933;28;20048;-71
2022/06/02 05:31:34;;;;;;;2.72;1.10;;;16.50;60.40;;;;;;5090031;28;20060;-72
2022/06/02 05:34:23;;;;;;;2.25;1.10;;;17.30;60.90;;;;;;5088116;28;20062;-72
2022/06/02 05:37:00;;;;;;;1.35;1.10;;;17.40;56.10;;;;;;5116783;27;20071;-72
2022/06/02 05:39:36;;;;;;;1.58;1.15;;;17.40;56.30;;;;;;5130569;27;20051;-72
2022/06/02 05:42:16;;;;;;;1.40;1.10;;;17.50;60.70;;;;;;5130222;27;20566;-71
2022/06/02 05:44:50;;;;;;;1.02;0.93;;;18.00;60.80;;;;;;5128923;27;20058;-71
2022/06/02 05:47:27;;;;;;;1.10;1.00;;;17.90;62.20;;;;;;5130603;27;20061;-71
2022/06/02 05:49:57;;;;;;;1.15;1.05;;;17.60;61.20;;;;;;5095524;27;20048;-71
2022/06/02 05:52:31;;;;;;;1.50;1.10;;;18.30;62.00;;;;;;5089315;28;20500;-71
2022/06/02 05:55:17;;;;;;;1.50;1.20;;;18.40;60.50;;;;;;5088342;28;20058;-72
2022/06/02 05:57:47;;;;;;;1.25;1.05;;;17.50;59.90;;;;;;5093844;28;20127;-71
2022/06/02 06:00:18;;;;;;;1.20;1.10;;;19.00;60.10;;;;;;5098100;28;20040;-72
2022/06/02 06:03:22;;;;;;;2.42;1.17;;;18.70;54.60;;;;;;5100155;28;20218;-72
2022/06/02 06:05:51;;;;;;;0.90;0.90;;;19.10;60.60;;;;;;5097282;28;20044;-71
2022/06/02 06:08:29;;;;;;;1.20;1.00;;;18.70;59.60;;;;;;5096237;28;20048;-71
2022/06/02 06:11:07;;;;;;;1.02;0.88;;;19.30;59.80;;;;;;5088105;28;20052;-72
2022/06/02 06:14:03;;;;;;;1.00;0.90;;;19.30;58.90;;;;;;5096506;28;20050;-71
2022/06/02 06:16:33;;;;;;;1.33;1.02;;;19.30;53.90;;;;;;5071003;28;20046;-71
2022/06/02 06:19:08;;;;;;;1.80;1.02;;;19.40;58.10;;;;;;5087668;28;20051;-72
2022/06/02 06:21:45;;;;;;;1.02;0.93;;;19.60;58.40;;;;;;5089063;28;20134;-72
2022/06/02 06:24:29;;;;;;;1.15;0.80;;;19.70;53.00;;;;;;5088864;28;20040;-72
2022/06/02 06:27:00;;;;;;;1.95;0.90;;;19.90;53.10;;;;;;5088974;28;20044;-72
2022/06/02 06:29:38;;;;;;;0.80;0.80;;;20.40;58.80;;;;;;5088124;28;20486;-71
2022/06/02 06:32:10;;;;;;;1.30;0.98;;;20.10;52.70;;;;;;5094573;28;20108;-72
2022/06/02 06:34:44;;;;;;;0.90;0.90;;;20.50;56.30;;;;;;5107861;28;20069;-72
2022/06/02 06:37:45;;;;;;;1.10;1.00;;;20.20;58.10;;;;;;5104922;27;20039;-71
2022/06/02 06:40:22;;;;;;;1.35;0.95;;;20.30;52.30;;;;;;5098522;28;20056;-73
2022/06/02 06:42:56;;;;;;;0.80;0.80;;;20.50;57.20;;;;;;5092488;28;20056;-72
2022/06/02 06:45:30;;;;;;;0.90;0.90;;;20.50;56.60;;;;;;5082628;28;20051;-72
2022/06/02 06:47:59;;;;;;;0.88;0.88;;;20.50;51.80;;;;;;5087387;28;20056;-72
2022/06/02 06:50:28;;;;;;;2.60;1.10;;;20.60;51.70;;;;;;5087535;28;20052;-72
2022/06/02 06:53:15;;;;;;;0.82;0.80;;;20.90;56.60;;;;;;5087286;28;20142;-73
2022/06/02 06:55:52;;;;;;;1.17;0.88;;;21.50;58.20;;;;;;5086522;28;20043;-71
2022/06/02 06:58:27;;;;;;;2.08;1.00;;;20.80;51.80;;;;;;5087352;28;20055;-72
2022/06/02 07:00:57;;;;;;;1.10;1.00;;;20.90;51.80;;;;;;5087331;28;20062;-72
2022/06/02 07:03:27;;;;;;;1.92;0.90;;;21.10;57.20;;;;;;5106705;28;20123;-72
2022/06/02 07:05:57;;;;;;;1.05;0.90;;;21.20;57.70;;;;;;5107307;28;20061;-71
2022/06/02 07:08:29;;;;;;;1.75;0.80;;;21.20;56.70;;;;;;5099844;28;20052;-72
2022/06/02 07:10:59;;;;;;;0.70;0.70;;;20.80;56.40;;;;;;5087450;28;20409;-72
2022/06/02 07:13:28;;;;;;;0.90;0.80;;;20.20;56.20;;;;;;5087142;28;20055;-72
2022/06/02 07:15:57;;;;;;;0.77;0.77;;;22.30;57.50;;;;;;5094761;28;20410;-72
2022/06/02 07:18:36;;;;;;;1.35;0.85;;;21.60;56.90;;;;;;5105992;28;20058;-72
2022/06/02 07:21:07;;;;;;;0.90;0.75;;;21.60;57.00;;;;;;5105790;28;20099;-73
2022/06/02 07:24:04;;;;;;;0.80;0.80;;;21.40;56.70;;;;;;5095470;28;20080;-72
2022/06/02 07:26:52;;;;;;;0.70;0.70;;;21.40;57.30;;;;;;5039752;28;20426;-72
2022/06/02 07:29:30;;;;;;;1.67;1.00;;;22.60;57.30;;;;;;5091645;28;20083;-71
2022/06/02 07:32:13;;;;;;;1.10;0.80;;;21.70;57.20;;;;;;5090883;28;20055;-71
2022/06/02 07:35:13;;;;;;;1.38;0.80;;;21.50;55.00;;;;;;5100290;28;20048;-71
2022/06/02 07:37:43;;;;;;;1.20;0.85;;;21.50;51.80;;;;;;5081457;28;20087;-71
2022/06/02 07:40:22;;;;;;;1.17;0.77;;;21.00;56.90;;;;;;5102660;28;20052;-71
2022/06/02 07:43:06;;;;;;;1.40;0.80;;;21.50;56.50;;;;;;5096283;28;20453;-71
2022/06/02 07:45:37;;;;;;;0.60;0.60;;;21.70;55.90;;;;;;5101204;28;20058;-72
2022/06/02 07:48:23;;;;;;;1.05;0.80;;;21.70;57.30;;;;;;5091028;28;20078;-72
2022/06/02 07:50:52;;;;;;;0.70;0.70;;;21.60;51.70;;;;;;5079752;28;20119;-72
2022/06/02 07:53:21;;;;;;;1.15;1.05;;;21.50;56.60;;;;;;5111024;28;20056;-71
2022/06/02 07:55:57;;;;;;;0.75;0.70;;;21.80;56.80;;;;;;5091645;28;20066;-71
2022/06/02 07:58:31;;;;;;;1.00;0.90;;;21.60;56.60;;;;;;5089382;28;20056;-71
2022/06/02 08:01:02;;;;;;;1.13;0.70;;;22.70;56.70;;;;;;5102403;28;20087;-71
2022/06/02 08:03:38;;;;;;;1.08;0.85;;;21.80;51.60;;;;;;5106774;28;20042;-71
2022/06/02 08:06:08;;;;;;;1.02;0.90;;;21.80;51.50;;;;;;5105705;28;20595;-71
2022/06/02 08:08:39;;;;;;;0.95;0.80;;;21.80;51.50;;;;;;5098463;28;20040;-71
2022/06/02 08:11:23;;;;;;;1.90;0.90;;;21.10;56.00;;;;;;5098489;28;20101;-71
2022/06/02 08:13:55;;;;;;;0.85;0.70;;;21.80;56.40;;;;;;5093021;28;20048;-71
2022/06/02 08:16:27;;;;;;;1.38;0.82;;;21.90;56.10;;;;;;5090285;28;20058;-71
2022/06/02 08:19:08;;;;;;;0.63;0.63;;;21.20;55.30;;;;;;5091635;28;20040;-71
2022/06/02 08:21:38;;;;;;;1.10;1.00;;;23.20;57.60;;;;;;5090158;28;20044;-71
2022/06/02 08:24:19;;;;;;;0.80;0.73;;;21.80;51.20;;;;;;5092746;28;20078;-71
2022/06/02 08:26:52;;;;;;;0.75;0.75;;;21.70;55.90;;;;;;5094571;28;20120;-71
2022/06/02 08:29:27;;;;;;;1.55;0.80;;;21.90;51.10;;;;;;5089800;28;20510;-71
2022/06/02 08:32:03;;;;;;;;;;;21.80;51.10;;;;;;5099999;28;20506;-71
2022/06/02 08:34:36;;;;;;;1.10;0.80;;;21.80;56.40;;;;;;5108584;28;19920;-72
2022/06/02 08:37:07;;;;;;;1.48;0.90;;;21.60;56.10;;;;;;5109451;28;20043;-72
2022/06/02 08:40:04;;;;;;;0.80;0.80;;;21.90;56.90;;;;;;5109875;28;20058;-71
2022/06/02 08:43:13;;;;;;;0.88;0.70;;;21.60;56.00;;;;;;5080215;28;20134;-72
2022/06/02 08:46:01;;;;;;;1.42;0.98;;;21.70;51.30;;;;;;5079014;28;20379;-72
2022/06/02 08:49:01;;;;;;;0.80;0.80;;;21.70;51.30;;;;;;5104021;28;20413;-72
2022/06/02 08:52:27;;;;;;;1.20;1.00;;;21.70;51.40;;;;;;5090566;28;20128;-72
2022/06/02 08:55:23;;;;;;;0.90;0.85;;;21.60;56.80;;;;;;5101528;28;20058;-71
2022/06/02 08:58:34;;;;;;;1.75;0.90;;;21.60;51.60;;;;;;5042184;28;20134;-72
2022/06/02 09:01:06;;;;;;;0.98;0.90;;;22.60;57.10;;;;;;5090489;28;20392;-72
2022/06/02 09:04:00;;;;;;;1.10;0.95;;;21.50;55.60;;;;;;5088855;28;20056;-73
2022/06/02 09:06:56;;;;;;;1.40;0.80;;;21.30;56.60;;;;;;5098488;28;20058;-71
2022/06/02 09:09:56;;;;;;;1.08;0.80;;;21.50;51.70;;;;;;5096776;28;20494;-72
2022/06/02 09:12:46;;;;;;;1.90;0.90;;;21.50;51.80;;;;;;5094658;28;20051;-71
2022/06/02 09:15:42;;;;;;;2.60;1.10;;;21.40;56.60;;;;;;5100150;28;20062;-72
2022/06/02 09:18:18;;;;;;;2.90;0.88;;;21.70;57.30;;;;;;5085049;28;20047;-72
2022/06/02 09:20:50;;;;;;;3.50;0.90;;;21.50;56.20;;;;;;5096229;28;20473;-72
2022/06/02 09:23:37;;;;;;;2.78;0.95;;;21.50;51.90;;;;;;5109352;28;20052;-72
2022/06/02 09:26:28;;;;;;;1.38;0.98;;;21.40;56.30;;;;;;5099251;28;20050;-72
2022/06/02 09:29:09;;;;;;;0.93;0.90;;;21.50;51.90;;;;;;5092667;28;20054;-71
2022/06/02 09:31:51;;;;;;;1.58;0.90;;;21.40;56.40;;;;;;5099143;28;20051;-71
2022/06/02 09:34:42;;;;;;;1.23;0.90;;;22.00;56.40;;;;;;5098727;28;20069;-71
2022/06/02 09:37:34;;;;;;;1.00;0.90;;;21.40;51.90;;;;;;5089218;28;20047;-72
2022/06/02 09:40:17;;;;;;;2.35;1.00;;;21.40;51.90;;;;;;5088992;28;20551;-72
2022/06/02 09:43:16;;;;;;;1.63;1.00;;;21.40;52.00;;;;;;5092421;28;20048;-72
2022/06/02 09:45:46;;;;;;;1.92;0.90;;;21.40;52.00;;;;;;5044040;28;20130;-72
2022/06/02 09:48:22;;;;;;;1.42;0.85;;;21.40;57.10;;;;;;5103649;28;20078;-72
2022/06/02 09:51:34;;;;;;;1.00;0.90;;;21.40;51.90;;;;;;5088578;28;20445;-72
2022/06/02 09:54:23;;;;;;;1.70;1.00;;;21.80;57.10;;;;;;5049637;28;20130;-72
2022/06/02 09:59:55;;;;;;;2.13;1.00;;;20.70;51.30;;;;;;5088490;28;20055;-73
2022/06/02 10:02:24;;;;;;;2.45;1.00;;;21.40;56.20;;;;;;5087330;28;20674;-73
2022/06/02 10:05:09;;;;;;;1.13;1.00;;;21.40;57.40;;;;;;5087784;28;20064;-73
2022/06/02 10:07:41;;;;;;;2.33;1.00;;;20.30;55.80;;;;;;5088029;28;20052;-73
2022/06/02 10:10:34;;;;;;;2.78;1.10;;;21.30;52.10;;;;;;5095873;28;20058;-72
2022/06/02 10:13:34;;;;;;;1.02;0.93;;;21.30;52.00;;;;;;5104472;28;20492;-72
2022/06/02 10:16:28;;;;;;;2.03;1.17;;;21.20;56.80;;;;;;5001455;28;20053;-73
2022/06/02 10:19:06;;;;;;;1.67;1.13;;;21.30;52.10;;;;;;5080876;28;20050;-73
2022/06/02 10:21:44;;;;;;;1.35;0.90;;;20.60;55.90;;;;;;5091228;28;20584;-73
2022/06/02 10:24:51;;;;;;;2.45;1.20;;;21.30;52.10;;;;;;5107886;28;20062;-73
2022/06/02 10:28:01;;;;;;;5.25;1.10;;;20.60;56.00;;;;;;5051075;28;20052;-73
2022/06/02 10:30:39;;;;;;;4.35;2.03;;;21.10;56.50;;;;;;5101657;28;20051;-73
2022/06/02 10:33:29;;;;;;;8.25;2.75;;;21.00;56.80;;;;;;5097237;28;20052;-72
2022/06/02 10:36:37;;;;;;;9.43;2.67;;;20.90;57.00;;;;;;5095711;28;20043;-72
2022/06/02 10:39:15;;;;;;;13.13;3.55;;;21.00;57.20;;;;;;5015369;28;20479;-72
2022/06/02 10:41:51;;;;;;;9.27;3.45;;;21.60;52.80;;;;;;5093891;28;20487;-74
2022/06/02 10:44:20;;;;;;;8.52;2.88;;;21.50;57.20;;;;;;5096855;28;20058;-73
2022/06/02 10:47:17;;;;;;;8.25;2.63;;;20.40;57.40;;;;;;5099111;28;20047;-73
2022/06/02 10:49:54;;;;;;;5.32;2.22;;;21.20;56.10;;;;;;5096388;28;20158;-73
2022/06/02 10:52:34;;;;;;;6.63;2.33;;;21.40;57.40;;;;;;5096034;28;20052;-73
2022/06/02 10:55:37;;;;;;;6.97;2.55;;;21.40;56.60;;;;;;5092264;28;20063;-72
2022/06/02 10:58:23;;;;;;;6.82;2.10;;;21.20;56.30;;;;;;5094786;28;20130;-71
2022/06/02 11:01:12;;;;;;;7.47;2.70;;;21.20;56.40;;;;;;5082915;28;20062;-72
2022/06/02 11:04:08;;;;;;;5.07;2.17;;;21.10;56.90;;;;;;5061881;27;20071;-72
2022/06/02 11:06:59;;;;;;;6.47;2.30;;;20.30;57.10;;;;;;5108649;27;20055;-72
2022/06/02 11:09:55;;;;;;;6.88;2.28;;;21.00;57.20;;;;;;5089842;28;20662;-71
2022/06/02 11:12:54;;;;;;;7.00;2.08;;;21.10;52.70;;;;;;5122548;27;20047;-72
2022/06/02 11:15:54;;;;;;;5.90;2.38;;;21.20;56.70;;;;;;5088378;28;20131;-72
2022/06/02 11:18:39;;;;;;;7.55;2.00;;;21.00;57.10;;;;;;5088287;28;20131;-71
2022/06/02 11:21:32;;;;;;;7.35;2.60;;;21.40;58.10;;;;;;5089266;28;20086;-71
2022/06/02 11:24:27;;;;;;;5.88;2.30;;;21.10;57.00;;;;;;5086029;28;20102;-72
2022/06/02 11:27:25;;;;;;;5.10;2.15;;;21.20;52.80;;;;;;5067736;28;20491;-71
2022/06/02 11:30:19;;;;;;;5.85;2.00;;;21.30;58.20;;;;;;5091203;28;20417;-71
2022/06/02 11:33:18;;;;;;;3.30;1.88;;;21.20;56.60;;;;;;5102255;28;20043;-71
2022/06/02 11:36:16;;;;;;;4.05;1.88;;;21.20;52.80;;;;;;5055489;28;20043;-71
2022/06/02 11:39:08;;;;;;;4.60;1.90;;;20.60;57.10;;;;;;5090908;28;20440;-71
2022/06/02 11:41:37;;;;;;;5.30;1.77;;;21.10;56.90;;;;;;5101703;28;20048;-72
2022/06/02 11:44:07;;;;;;;4.38;2.10;;;21.10;53.10;;;;;;5091358;28;20068;-70
2022/06/02 11:47:01;;;;;;;17.67;3.05;;;19.80;57.50;;;;;;5092940;28;20044;-71
2022/06/02 11:50:03;;;;;;;8.60;2.60;;;21.00;57.60;;;;;;5090574;28;20052;-71
2022/06/02 11:52:53;;;;;;;11.38;2.65;;;21.00;57.60;;;;;;5091388;28;20119;-70
2022/06/02 11:55:25;;;;;;;11.55;2.28;;;21.00;57.30;;;;;;5090204;28;20062;-71
2022/06/02 11:58:21;;;;;;;5.95;1.95;;;21.20;57.80;;;;;;5090256;28;20568;-71
2022/06/02 12:01:12;;;;;;;6.97;2.97;;;21.10;53.50;;;;;;5021517;28;20055;-71
2022/06/02 12:04:20;;;;;;;8.55;2.10;;;21.20;58.60;;;;;;5089714;28;20105;-71
2022/06/02 12:07:11;;;;;;;8.35;2.10;;;21.00;57.80;;;;;;5095247;28;20050;-70
2022/06/02 12:09:47;;;;;;;5.28;1.88;;;21.00;57.20;;;;;;5101780;28;20053;-71
2022/06/02 12:12:36;;;;;;;4.10;1.90;;;21.00;57.80;;;;;;5109782;28;20058;-71
2022/06/02 12:15:20;;;;;;;7.68;1.88;;;21.30;57.60;;;;;;5101569;28;20062;-71
2022/06/02 12:18:11;;;;;;;6.60;2.10;;;21.20;57.90;;;;;;5110764;28;20051;-71
2022/06/02 12:21:04;;;;;;;10.73;1.83;;;21.80;54.40;;;;;;5109884;28;20513;-71
2022/06/02 12:23:39;;;;;;;12.98;2.42;;;21.20;58.60;;;;;;5089803;28;20052;-71
2022/06/02 12:26:09;;;;;;;9.32;1.90;;;21.20;53.90;;;;;;5089978;28;20684;-71
2022/06/02 12:28:51;;;;;;;13.52;2.83;;;21.20;53.90;;;;;;5105545;28;20040;-70
2022/06/02 12:31:40;;;;;;;5.82;2.20;;;21.30;59.10;;;;;;5089835;28;20055;-71
2022/06/02 12:34:17;;;;;;;13.60;2.97;;;20.30;57.60;;;;;;5078569;28;20060;-71
2022/06/02 12:36:52;;;;;;;10.18;2.20;;;21.20;54.00;;;;;;5109317;28;20124;-70
2022/06/02 12:39:40;;;;;;;;;;;21.30;54.00;;;;;;5106163;28;20048;-71
2022/06/02 12:42:40;;;;;;;7.03;1.70;;;21.20;53.90;;;;;;5086812;28;19920;-70
2022/06/02 12:45:33;;;;;;;10.07;1.75;;;21.30;57.90;;;;;;5089410;28;20135;-70
2022/06/02 12:48:21;;;;;;;7.38;2.00;;;21.20;59.00;;;;;;5094428;28;20039;-70
2022/06/02 12:50:53;;;;;;;8.07;1.80;;;21.10;57.80;;;;;;5110311;28;20049;-71
2022/06/02 12:53:43;;;;;;;6.05;1.92;;;22.20;58.20;;;;;;5093503;28;20039;-71
2022/06/02 12:56:21;;;;;;;3.58;1.70;;;21.10;58.00;;;;;;5109831;28;20130;-70
2022/06/02 12:59:20;;;;;;;6.43;2.13;;;21.10;57.50;;;;;;5105619;28;20052;-70
2022/06/02 13:01:55;;;;;;;6.80;2.00;;;21.20;53.80;;;;;;5095387;28;20416;-71
2022/06/02 13:04:55;;;;;;;4.82;2.08;;;21.10;58.30;;;;;;5098936;28;20066;-71
2022/06/02 13:07:46;;;;;;;13.48;4.07;;;20.20;57.40;;;;;;5109274;28;20201;-71
2022/06/02 13:10:33;;;;;;;22.52;7.95;;;21.20;53.80;;;;;;5108977;28;20059;-70
2022/06/02 13:13:25;;;;;;;30.77;7.25;;;21.20;53.80;;;;;;5089977;28;20128;-70
2022/06/02 13:16:31;;;;;;;21.65;6.95;;;21.30;57.90;;;;;;5089769;28;20102;-70
2022/06/02 13:19:29;;;;;;;26.13;7.65;;;21.10;53.70;;;;;;5088688;28;20414;-71
2022/06/02 13:22:27;;;;;;;22.17;6.90;;;21.20;53.80;;;;;;5089386;28;20516;-71
2022/06/02 13:25:15;;;;;;;19.58;6.55;;;21.20;53.70;;;;;;5088512;28;20056;-71
2022/06/02 13:28:12;;;;;;;17.20;5.75;;;21.20;53.70;;;;;;5089114;28;20040;-70
2022/06/02 13:30:50;;;;;;;18.15;6.07;;;21.20;58.90;;;;;;5087955;28;20502;-69
2022/06/02 13:33:49;;;;;;;14.18;5.00;;;21.40;57.80;;;;;;5095099;28;20142;-71
2022/06/02 13:36:32;;;;;;;18.70;5.70;;;21.20;53.60;;;;;;5114893;27;20075;-71
2022/06/02 13:39:22;;;;;;;13.00;4.18;;;20.90;57.60;;;;;;5087880;28;20119;-71
2022/06/02 13:42:31;;;;;;;11.85;4.07;;;21.30;57.60;;;;;;5087283;28;20056;-72
2022/06/02 13:45:34;;;;;;;7.43;3.55;;;21.10;57.70;;;;;;5102381;28;20052;-72
2022/06/02 13:48:42;;;;;;;9.43;3.85;;;21.40;57.90;;;;;;5097870;27;20040;-72
2022/06/02 13:51:39;;;;;;;10.02;3.35;;;22.10;57.50;;;;;;5098627;28;20052;-71
2022/06/02 14:00:17;;;;;;;8.98;3.15;;;21.20;53.70;;;;;;5091611;28;20044;-71
2022/06/02 14:03:17;;;;;;;9.88;3.40;;;21.40;57.80;;;;;;5106708;28;20047;-71
2022/06/02 14:05:50;;;;;;;8.43;2.88;;;20.80;57.30;;;;;;5106478;28;20064;-72